Jarvisburg, North Carolina
Current Conditions -  °F | °C
As of 10:55 AM on Friday 28 Nov 2014 (Local Time) from KONX Reporting Station
Clear Clear  
Wind Chill: 35°   Ceiling: Unl
Heat Index: 41°   Visibility: 10mi
Dew Point: 19°   Wind: 12mph
Humidity: 40%   Direction: 330°NNW
Pressure: 30.32"   Gusts: 21mph
Location:  36.2°N, 75.87°W
Report Text: KONX 281555Z AUTO 33010G18KT 290V360 10SM CLR 05/M07 A3032 RMK AO2 T00521075
Loading
Personal Weather Stations






























Interactive Weather Map New forecast layout! Learn more

10-Day Weather Forecast

Advertisements
Track Severe Weather on mobile